createdAt,value
2022-10-05T00:03:54.059Z,1008.66
2022-10-05T00:08:58.182Z,1008.59
2022-10-05T00:14:02.354Z,1008.47
2022-10-05T00:19:06.553Z,1008.41
2022-10-05T00:24:10.678Z,1008.38
2022-10-05T00:29:14.837Z,1008.36
2022-10-05T00:34:19.022Z,1008.36
2022-10-05T00:39:23.192Z,1008.38
2022-10-05T00:44:27.314Z,1008.30
2022-10-05T00:49:31.478Z,1008.42
2022-10-05T00:54:35.681Z,1008.37
2022-10-05T00:59:39.794Z,1008.43
2022-10-05T01:04:43.952Z,1008.41
2022-10-05T01:09:48.143Z,1008.36
2022-10-05T01:14:52.281Z,1008.26
2022-10-05T01:19:56.445Z,1008.24
2022-10-05T01:24:58.740Z,1008.15
2022-10-05T01:30:02.904Z,1008.13
2022-10-05T01:35:05.168Z,1008.15
2022-10-05T01:40:09.302Z,1008.10
2022-10-05T01:45:13.477Z,1008.04
2022-10-05T01:50:17.637Z,1007.91
2022-10-05T01:55:21.820Z,1007.93
2022-10-05T02:00:25.929Z,1007.96
2022-10-05T02:05:30.121Z,1007.77
2022-10-05T02:10:34.308Z,1007.77
2022-10-05T02:15:38.481Z,1007.70
2022-10-05T02:20:42.573Z,1007.63
2022-10-05T02:25:46.781Z,1007.66
2022-10-05T02:30:50.935Z,1007.72
2022-10-05T02:35:55.082Z,1007.75
2022-10-05T02:40:59.232Z,1007.62
2022-10-05T02:46:03.488Z,1007.62
2022-10-05T02:51:07.551Z,1007.61
2022-10-05T02:56:11.719Z,1007.52
2022-10-05T03:01:15.891Z,1007.52
2022-10-05T03:06:20.020Z,1007.54
2022-10-05T03:11:24.202Z,1007.48
2022-10-05T03:16:28.471Z,1007.33
2022-10-05T03:21:30.624Z,1007.26
2022-10-05T03:26:34.814Z,1007.20
2022-10-05T03:31:37.129Z,1007.15
2022-10-05T03:36:41.281Z,1007.03
2022-10-05T03:41:45.386Z,1007.01
2022-10-05T03:46:49.979Z,1007.00
2022-10-05T03:51:53.691Z,1007.00
2022-10-05T03:56:57.907Z,1006.89
2022-10-05T04:02:02.042Z,1006.78
2022-10-05T04:07:06.212Z,1006.80
2022-10-05T04:12:10.341Z,1006.84
2022-10-05T04:17:14.550Z,1006.80
2022-10-05T04:22:18.667Z,1006.85
2022-10-05T04:27:22.869Z,1006.74
2022-10-05T04:32:27.012Z,1006.75
2022-10-05T04:37:31.167Z,1006.73
2022-10-05T04:42:35.343Z,1006.81
2022-10-05T04:47:39.483Z,1006.82
2022-10-05T04:52:43.626Z,1006.89
2022-10-05T04:57:47.840Z,1006.91
2022-10-05T05:02:50.089Z,1006.92
2022-10-05T05:07:54.221Z,1006.93
2022-10-05T05:12:58.388Z,1006.89
2022-10-05T05:18:00.686Z,1006.76
2022-10-05T05:23:04.810Z,1006.77
2022-10-05T05:28:09.024Z,1006.86
2022-10-05T05:33:13.161Z,1006.90
2022-10-05T05:38:17.344Z,1006.86
2022-10-05T05:43:21.469Z,1006.94
2022-10-05T05:48:25.647Z,1006.88
2022-10-05T05:53:29.781Z,1006.82
2022-10-05T05:58:34.049Z,1006.84
2022-10-05T06:03:38.109Z,1006.79
2022-10-05T06:08:42.260Z,1006.81
2022-10-05T06:13:46.497Z,1006.89
2022-10-05T06:18:50.611Z,1006.85
2022-10-05T06:23:54.744Z,1006.84
2022-10-05T06:28:58.917Z,1006.94
2022-10-05T06:34:03.065Z,1006.96
2022-10-05T06:39:07.267Z,1006.99
2022-10-05T06:44:11.432Z,1006.96
2022-10-05T06:49:15.596Z,1007.04
2022-10-05T06:54:19.724Z,1006.89
2022-10-05T06:59:23.872Z,1007.00
2022-10-05T07:04:26.121Z,1007.01
2022-10-05T07:09:30.315Z,1006.92
2022-10-05T07:14:32.584Z,1007.01
2022-10-05T07:19:36.721Z,1006.96
2022-10-05T07:24:40.912Z,1006.97
2022-10-05T07:29:45.050Z,1007.02
2022-10-05T07:34:49.185Z,1007.02
2022-10-05T07:40:00.528Z,1007.07
2022-10-05T07:44:57.524Z,1007.24
2022-10-05T07:50:01.692Z,1007.17
2022-10-05T07:55:05.872Z,1007.21
2022-10-05T08:00:10.047Z,1007.18
2022-10-05T08:05:14.158Z,1007.19
2022-10-05T08:10:18.317Z,1007.26
2022-10-05T08:15:22.492Z,1007.33
2022-10-05T08:20:26.675Z,1007.29
2022-10-05T08:25:30.812Z,1007.22
2022-10-05T08:30:34.969Z,1007.26
2022-10-05T08:35:39.138Z,1007.17
2022-10-05T08:45:47.535Z,1007.24
2022-10-05T08:50:51.588Z,1007.16
2022-10-05T08:55:55.796Z,1007.25
2022-10-05T09:01:00.011Z,1006.98
2022-10-05T09:06:02.229Z,1007.11
2022-10-05T09:11:06.368Z,1007.08
2022-10-05T09:16:10.598Z,1007.13
2022-10-05T09:21:14.665Z,1006.98
2022-10-05T09:26:18.882Z,1006.93
2022-10-05T09:31:23.040Z,1006.99
2022-10-05T09:36:27.137Z,1007.04
2022-10-05T09:41:31.339Z,1006.81
2022-10-05T09:46:35.498Z,1006.79
2022-10-05T09:51:39.648Z,1006.78
2022-10-05T09:56:44.039Z,1006.89
2022-10-05T10:01:48.381Z,1006.80
2022-10-05T10:06:52.116Z,1006.71
2022-10-05T10:11:56.281Z,1006.82
2022-10-05T10:17:00.467Z,1006.74
2022-10-05T10:22:04.591Z,1006.69
2022-10-05T10:27:08.793Z,1006.59
2022-10-05T10:32:12.914Z,1006.63
2022-10-05T10:37:17.139Z,1006.73
2022-10-05T10:42:26.013Z,1006.75
2022-10-05T10:47:25.391Z,1006.64
2022-10-05T10:52:29.557Z,1006.67
2022-10-05T10:57:31.820Z,1006.66
2022-10-05T11:02:36.102Z,1006.62
2022-10-05T11:07:38.289Z,1006.56
2022-10-05T11:12:42.444Z,1006.58
2022-10-05T11:17:44.684Z,1006.47
2022-10-05T11:22:48.841Z,1006.39
2022-10-05T11:27:53.218Z,1006.33
2022-10-05T11:32:57.159Z,1006.23
2022-10-05T11:38:01.330Z,1006.27
2022-10-05T11:43:05.456Z,1006.00
2022-10-05T11:48:09.642Z,1005.88
2022-10-05T11:58:17.927Z,1005.62
2022-10-05T12:03:22.266Z,1005.44
2022-10-05T12:08:26.260Z,1005.37
2022-10-05T12:13:30.416Z,1005.23
2022-10-05T12:18:34.573Z,1005.36
2022-10-05T12:23:38.773Z,1005.18
2022-10-05T12:28:42.939Z,1005.02
2022-10-05T12:33:47.090Z,1005.00
2022-10-05T12:38:51.237Z,1004.84
2022-10-05T12:43:55.403Z,1004.83
2022-10-05T12:48:59.539Z,1004.60
2022-10-05T12:54:03.690Z,1004.58
2022-10-05T12:59:07.874Z,1004.32
2022-10-05T13:04:12.032Z,1004.33
2022-10-05T13:09:14.327Z,1004.31
2022-10-05T13:14:18.454Z,1004.19
2022-10-05T13:19:20.738Z,1004.07
2022-10-05T13:24:24.849Z,1003.99
2022-10-05T13:29:29.045Z,1003.99
2022-10-05T13:34:33.201Z,1003.98
2022-10-05T13:39:37.333Z,1003.93
2022-10-05T13:44:41.538Z,1003.91
2022-10-05T13:54:49.852Z,1003.99
2022-10-05T13:59:53.996Z,1003.90
2022-10-05T14:04:58.163Z,1003.90
2022-10-05T14:10:02.350Z,1003.80
2022-10-05T14:15:06.505Z,1003.82
2022-10-05T14:20:10.625Z,1003.69
2022-10-05T14:25:14.794Z,1003.73
2022-10-05T14:30:18.990Z,1003.68
2022-10-05T14:35:23.089Z,1003.81
2022-10-05T14:40:27.396Z,1003.80
2022-10-05T14:45:31.446Z,1003.73
2022-10-05T14:50:35.577Z,1003.68
2022-10-05T14:55:39.722Z,1003.73
2022-10-05T15:00:48.181Z,1003.73
2022-10-05T15:05:46.167Z,1003.77
2022-10-05T15:10:50.340Z,1003.80
2022-10-05T15:15:52.631Z,1003.84
2022-10-05T15:20:56.746Z,1003.71
2022-10-05T15:26:00.936Z,1003.86
2022-10-05T15:31:05.203Z,1003.82
2022-10-05T15:36:09.251Z,1003.84
2022-10-05T15:41:13.377Z,1003.83
2022-10-05T15:46:17.637Z,1004.01
2022-10-05T15:51:21.733Z,1004.03
2022-10-05T15:56:25.881Z,1004.08
2022-10-05T16:01:30.147Z,1004.14
2022-10-05T16:11:38.352Z,1004.25
2022-10-05T16:16:42.495Z,1004.32
2022-10-05T16:21:46.666Z,1004.39
2022-10-05T16:26:50.809Z,1004.35
2022-10-05T16:31:54.952Z,1004.34
2022-10-05T16:36:59.340Z,1004.53
2022-10-05T16:42:03.301Z,1004.55
2022-10-05T16:47:07.454Z,1004.66
2022-10-05T16:52:11.687Z,1004.82
2022-10-05T16:57:21.793Z,1004.91
2022-10-05T17:02:19.993Z,1004.86
2022-10-05T17:07:22.230Z,1005.07
2022-10-05T17:12:26.361Z,1005.13
2022-10-05T17:17:30.573Z,1005.16
2022-10-05T17:22:34.699Z,1005.28
2022-10-05T17:27:38.837Z,1005.38
2022-10-05T17:32:42.975Z,1005.58
2022-10-05T17:37:47.175Z,1005.67
2022-10-05T17:42:51.326Z,1005.93
2022-10-05T17:53:02.197Z,1006.14
2022-10-05T17:58:03.794Z,1006.14
2022-10-05T18:03:08.115Z,1006.24
2022-10-05T18:08:12.107Z,1006.28
2022-10-05T18:13:16.270Z,1006.28
2022-10-05T18:18:20.465Z,1006.39
2022-10-05T18:23:24.605Z,1006.50
2022-10-05T18:28:29.365Z,1006.50
2022-10-05T18:33:32.898Z,1006.57
2022-10-05T18:38:37.102Z,1006.66
2022-10-05T18:43:41.256Z,1006.59
2022-10-05T18:48:45.412Z,1006.64
2022-10-05T18:53:49.564Z,1006.71
2022-10-05T18:58:56.587Z,1006.73
2022-10-05T19:03:55.997Z,1006.75
2022-10-05T19:08:58.252Z,1006.83
2022-10-05T19:14:02.413Z,1006.88
2022-10-05T19:19:06.572Z,1006.91
2022-10-05T19:24:10.735Z,1006.78
2022-10-05T19:29:14.893Z,1006.74
2022-10-05T19:34:19.030Z,1006.71
2022-10-05T19:39:23.195Z,1006.82
2022-10-05T19:44:27.409Z,1006.96
2022-10-05T19:49:31.533Z,1006.97
2022-10-05T19:54:35.707Z,1007.00
2022-10-05T19:59:39.855Z,1006.94
2022-10-05T20:04:44.077Z,1006.98
2022-10-05T20:09:48.170Z,1006.86
2022-10-05T20:14:56.067Z,1006.99
2022-10-05T20:19:56.489Z,1007.00
2022-10-05T20:25:00.645Z,1006.99
2022-10-05T20:30:04.814Z,1007.17
2022-10-05T20:35:08.980Z,1007.26
2022-10-05T20:40:13.110Z,1007.25
2022-10-05T20:45:17.306Z,1007.33
2022-10-05T20:50:21.470Z,1007.40
2022-10-05T20:55:23.703Z,1007.46
2022-10-05T21:00:30.836Z,1007.44
2022-10-05T21:05:30.339Z,1007.52
2022-10-05T21:10:34.323Z,1007.57
2022-10-05T21:15:36.554Z,1007.59
2022-10-05T21:20:40.726Z,1007.44
2022-10-05T21:25:44.890Z,1007.58
2022-10-05T21:30:49.040Z,1007.64
2022-10-05T21:35:53.207Z,1007.63
2022-10-05T21:40:57.353Z,1007.66
2022-10-05T21:46:01.692Z,1007.72
2022-10-05T21:51:05.670Z,1007.70
2022-10-05T21:56:09.829Z,1007.78
2022-10-05T22:01:12.175Z,1007.79
2022-10-05T22:06:16.286Z,1007.83
2022-10-05T22:11:20.433Z,1007.88
2022-10-05T22:16:24.645Z,1008.09
2022-10-05T22:21:28.726Z,1008.55
2022-10-05T22:26:32.900Z,1008.63
2022-10-05T22:31:37.201Z,1008.68
2022-10-05T22:36:41.254Z,1008.76
2022-10-05T22:41:45.397Z,1008.97
2022-10-05T22:46:49.562Z,1009.01
2022-10-05T22:51:53.674Z,1009.16
2022-10-05T22:56:57.882Z,1009.23
2022-10-05T23:02:00.256Z,1009.28
2022-10-05T23:07:04.290Z,1009.42
2022-10-05T23:12:06.579Z,1009.49
2022-10-05T23:17:10.732Z,1009.65
2022-10-05T23:22:14.869Z,1009.83
2022-10-05T23:27:19.045Z,1010.46
2022-10-05T23:32:23.168Z,1010.58
2022-10-05T23:37:27.353Z,1010.71
2022-10-05T23:42:31.529Z,1010.93
2022-10-05T23:47:35.697Z,1011.06
2022-10-05T23:52:39.858Z,1011.22
2022-10-05T23:57:43.985Z,1011.25
